sensor_id;sensor_type;location;lat;lon;timestamp;P1;durP1;ratioP1;P2;durP2;ratioP2
60430;SDS011;46285;45.122;20.726;2024-01-11T00:04:41;151.55;;;45.55;;
60430;SDS011;46285;45.122;20.726;2024-01-11T00:14:45;107.45;;;36.45;;
60430;SDS011;46285;45.122;20.726;2024-01-11T00:24:47;130.45;;;36.63;;
60430;SDS011;46285;45.122;20.726;2024-01-11T00:34:49;94.80;;;37.63;;
60430;SDS011;46285;45.122;20.726;2024-01-11T00:44:51;101.43;;;33.30;;
60430;SDS011;46285;45.122;20.726;2024-01-11T00:54:53;145.00;;;34.63;;
60430;SDS011;46285;45.122;20.726;2024-01-11T01:04:55;95.35;;;37.88;;
60430;SDS011;46285;45.122;20.726;2024-01-11T01:14:56;86.85;;;38.25;;
60430;SDS011;46285;45.122;20.726;2024-01-11T01:24:58;85.47;;;36.38;;
60430;SDS011;46285;45.122;20.726;2024-01-11T01:35:00;93.50;;;37.10;;
60430;SDS011;46285;45.122;20.726;2024-01-11T01:45:03;114.05;;;38.38;;
60430;SDS011;46285;45.122;20.726;2024-01-11T01:55:05;98.03;;;37.97;;
60430;SDS011;46285;45.122;20.726;2024-01-11T02:05:08;124.30;;;39.53;;
60430;SDS011;46285;45.122;20.726;2024-01-11T02:15:12;116.35;;;41.78;;
60430;SDS011;46285;45.122;20.726;2024-01-11T02:25:14;128.43;;;44.47;;
60430;SDS011;46285;45.122;20.726;2024-01-11T02:45:21;132.18;;;43.97;;
60430;SDS011;46285;45.122;20.726;2024-01-11T02:55:23;104.78;;;41.60;;
60430;SDS011;46285;45.122;20.726;2024-01-11T03:05:25;117.55;;;38.20;;
60430;SDS011;46285;45.122;20.726;2024-01-11T03:15:27;118.40;;;44.55;;
60430;SDS011;46285;45.122;20.726;2024-01-11T03:25:29;86.30;;;35.25;;
60430;SDS011;46285;45.122;20.726;2024-01-11T03:35:31;83.25;;;37.42;;
60430;SDS011;46285;45.122;20.726;2024-01-11T03:45:33;78.68;;;31.83;;
60430;SDS011;46285;45.122;20.726;2024-01-11T03:55:35;84.80;;;34.13;;
60430;SDS011;46285;45.122;20.726;2024-01-11T04:05:37;70.03;;;30.60;;
60430;SDS011;46285;45.122;20.726;2024-01-11T04:15:39;76.05;;;32.50;;
60430;SDS011;46285;45.122;20.726;2024-01-11T04:25:41;75.45;;;31.00;;
60430;SDS011;46285;45.122;20.726;2024-01-11T04:35:43;97.90;;;38.38;;
60430;SDS011;46285;45.122;20.726;2024-01-11T04:45:45;81.45;;;33.67;;
60430;SDS011;46285;45.122;20.726;2024-01-11T04:55:48;73.85;;;35.92;;
60430;SDS011;46285;45.122;20.726;2024-01-11T05:05:50;84.15;;;33.85;;
60430;SDS011;46285;45.122;20.726;2024-01-11T05:15:52;71.55;;;30.40;;
60430;SDS011;46285;45.122;20.726;2024-01-11T05:25:54;87.93;;;43.08;;
60430;SDS011;46285;45.122;20.726;2024-01-11T05:35:57;97.63;;;39.90;;
60430;SDS011;46285;45.122;20.726;2024-01-11T05:46:00;102.28;;;44.03;;
60430;SDS011;46285;45.122;20.726;2024-01-11T05:56:07;92.43;;;37.50;;
60430;SDS011;46285;45.122;20.726;2024-01-11T06:06:09;100.68;;;32.47;;
60430;SDS011;46285;45.122;20.726;2024-01-11T06:16:11;147.82;;;54.30;;
60430;SDS011;46285;45.122;20.726;2024-01-11T06:26:13;162.20;;;47.78;;
60430;SDS011;46285;45.122;20.726;2024-01-11T06:36:16;135.85;;;46.72;;
60430;SDS011;46285;45.122;20.726;2024-01-11T06:46:21;149.77;;;71.40;;
60430;SDS011;46285;45.122;20.726;2024-01-11T06:56:23;205.20;;;97.93;;
60430;SDS011;46285;45.122;20.726;2024-01-11T07:06:26;95.35;;;46.80;;
60430;SDS011;46285;45.122;20.726;2024-01-11T07:16:28;159.18;;;72.18;;
60430;SDS011;46285;45.122;20.726;2024-01-11T07:26:30;147.02;;;66.00;;
60430;SDS011;46285;45.122;20.726;2024-01-11T07:36:32;98.57;;;40.90;;
60430;SDS011;46285;45.122;20.726;2024-01-11T07:46:35;133.20;;;50.67;;
60430;SDS011;46285;45.122;20.726;2024-01-11T07:56:37;110.82;;;48.67;;
60430;SDS011;46285;45.122;20.726;2024-01-11T08:06:40;192.63;;;94.20;;
60430;SDS011;46285;45.122;20.726;2024-01-11T08:16:42;184.10;;;91.32;;
60430;SDS011;46285;45.122;20.726;2024-01-11T08:26:44;163.27;;;71.53;;
60430;SDS011;46285;45.122;20.726;2024-01-11T08:36:46;155.63;;;69.70;;
60430;SDS011;46285;45.122;20.726;2024-01-11T08:46:48;187.43;;;89.43;;
60430;SDS011;46285;45.122;20.726;2024-01-11T08:56:50;333.40;;;208.52;;
60430;SDS011;46285;45.122;20.726;2024-01-11T09:06:53;377.83;;;210.48;;
60430;SDS011;46285;45.122;20.726;2024-01-11T09:16:57;147.32;;;62.20;;
60430;SDS011;46285;45.122;20.726;2024-01-11T09:27:02;243.80;;;139.43;;
60430;SDS011;46285;45.122;20.726;2024-01-11T09:37:05;247.63;;;124.47;;
60430;SDS011;46285;45.122;20.726;2024-01-11T09:47:08;309.33;;;155.95;;
60430;SDS011;46285;45.122;20.726;2024-01-11T09:57:10;479.30;;;302.92;;
60430;SDS011;46285;45.122;20.726;2024-01-11T10:07:12;231.65;;;126.35;;
60430;SDS011;46285;45.122;20.726;2024-01-11T10:17:16;239.82;;;127.43;;
60430;SDS011;46285;45.122;20.726;2024-01-11T10:27:23;300.30;;;147.63;;
60430;SDS011;46285;45.122;20.726;2024-01-11T10:37:28;395.90;;;205.63;;
60430;SDS011;46285;45.122;20.726;2024-01-11T10:47:31;179.93;;;94.93;;
60430;SDS011;46285;45.122;20.726;2024-01-11T10:57:34;203.82;;;101.13;;
60430;SDS011;46285;45.122;20.726;2024-01-11T11:07:36;225.57;;;102.57;;
60430;SDS011;46285;45.122;20.726;2024-01-11T11:17:43;196.85;;;91.63;;
60430;SDS011;46285;45.122;20.726;2024-01-11T11:27:47;198.82;;;92.80;;
60430;SDS011;46285;45.122;20.726;2024-01-11T11:37:53;203.43;;;91.10;;
60430;SDS011;46285;45.122;20.726;2024-01-11T11:47:56;178.38;;;85.85;;
60430;SDS011;46285;45.122;20.726;2024-01-11T11:57:58;154.07;;;75.30;;
60430;SDS011;46285;45.122;20.726;2024-01-11T12:08:00;161.02;;;77.88;;
60430;SDS011;46285;45.122;20.726;2024-01-11T12:18:02;156.65;;;76.53;;
60430;SDS011;46285;45.122;20.726;2024-01-11T12:28:05;159.32;;;72.82;;
60430;SDS011;46285;45.122;20.726;2024-01-11T12:38:08;202.07;;;100.30;;
60430;SDS011;46285;45.122;20.726;2024-01-11T12:48:11;285.92;;;155.95;;
60430;SDS011;46285;45.122;20.726;2024-01-11T12:58:20;168.63;;;77.87;;
60430;SDS011;46285;45.122;20.726;2024-01-11T13:08:22;154.70;;;80.70;;
60430;SDS011;46285;45.122;20.726;2024-01-11T13:18:25;131.93;;;67.10;;
60430;SDS011;46285;45.122;20.726;2024-01-11T13:28:28;135.10;;;72.95;;
60430;SDS011;46285;45.122;20.726;2024-01-11T13:38:31;181.38;;;89.28;;
60430;SDS011;46285;45.122;20.726;2024-01-11T13:59:02;134.60;;;64.63;;
60430;SDS011;46285;45.122;20.726;2024-01-11T14:09:05;114.32;;;57.75;;
60430;SDS011;46285;45.122;20.726;2024-01-11T14:19:10;136.50;;;68.27;;
60430;SDS011;46285;45.122;20.726;2024-01-11T14:29:14;173.68;;;76.65;;
60430;SDS011;46285;45.122;20.726;2024-01-11T14:49:45;163.70;;;80.93;;
60430;SDS011;46285;45.122;20.726;2024-01-11T14:59:48;187.65;;;104.03;;
60430;SDS011;46285;45.122;20.726;2024-01-11T15:09:50;204.93;;;112.00;;
60430;SDS011;46285;45.122;20.726;2024-01-11T15:19:56;713.35;;;340.33;;
60430;SDS011;46285;45.122;20.726;2024-01-11T15:30:02;315.30;;;160.68;;
60430;SDS011;46285;45.122;20.726;2024-01-11T15:40:04;380.73;;;190.70;;
60430;SDS011;46285;45.122;20.726;2024-01-11T15:50:07;231.43;;;118.15;;
60430;SDS011;46285;45.122;20.726;2024-01-11T16:00:11;165.88;;;75.43;;
60430;SDS011;46285;45.122;20.726;2024-01-11T16:10:14;184.00;;;87.18;;
60430;SDS011;46285;45.122;20.726;2024-01-11T16:20:20;234.98;;;97.72;;
60430;SDS011;46285;45.122;20.726;2024-01-11T16:30:21;173.70;;;78.80;;
60430;SDS011;46285;45.122;20.726;2024-01-11T16:40:24;196.25;;;84.57;;
60430;SDS011;46285;45.122;20.726;2024-01-11T16:50:26;171.57;;;78.78;;
60430;SDS011;46285;45.122;20.726;2024-01-11T17:00:28;177.38;;;78.55;;
60430;SDS011;46285;45.122;20.726;2024-01-11T17:10:30;184.43;;;79.72;;
60430;SDS011;46285;45.122;20.726;2024-01-11T17:20:32;183.50;;;76.50;;
60430;SDS011;46285;45.122;20.726;2024-01-11T17:30:34;256.10;;;112.38;;
60430;SDS011;46285;45.122;20.726;2024-01-11T17:40:36;212.07;;;88.70;;
60430;SDS011;46285;45.122;20.726;2024-01-11T17:50:41;247.23;;;89.55;;
60430;SDS011;46285;45.122;20.726;2024-01-11T18:00:44;231.70;;;81.63;;
60430;SDS011;46285;45.122;20.726;2024-01-11T18:10:46;214.20;;;89.70;;
60430;SDS011;46285;45.122;20.726;2024-01-11T18:20:49;263.50;;;121.15;;
60430;SDS011;46285;45.122;20.726;2024-01-11T18:30:52;170.07;;;82.15;;
60430;SDS011;46285;45.122;20.726;2024-01-11T18:40:55;193.00;;;96.88;;
60430;SDS011;46285;45.122;20.726;2024-01-11T18:50:58;170.07;;;77.35;;
60430;SDS011;46285;45.122;20.726;2024-01-11T19:01:01;193.77;;;85.07;;
60430;SDS011;46285;45.122;20.726;2024-01-11T19:12:12;195.55;;;90.13;;
60430;SDS011;46285;45.122;20.726;2024-01-11T19:22:15;271.15;;;113.65;;
60430;SDS011;46285;45.122;20.726;2024-01-11T19:32:18;205.38;;;92.63;;
60430;SDS011;46285;45.122;20.726;2024-01-11T19:42:20;205.57;;;91.47;;
60430;SDS011;46285;45.122;20.726;2024-01-11T19:52:23;176.93;;;79.43;;
60430;SDS011;46285;45.122;20.726;2024-01-11T20:02:25;202.95;;;86.28;;
60430;SDS011;46285;45.122;20.726;2024-01-11T20:12:28;189.88;;;79.43;;
60430;SDS011;46285;45.122;20.726;2024-01-11T20:22:30;166.75;;;81.22;;
60430;SDS011;46285;45.122;20.726;2024-01-11T20:32:33;150.93;;;70.35;;
60430;SDS011;46285;45.122;20.726;2024-01-11T20:42:35;152.57;;;74.68;;
60430;SDS011;46285;45.122;20.726;2024-01-11T20:52:37;147.75;;;69.40;;
60430;SDS011;46285;45.122;20.726;2024-01-11T21:02:41;162.32;;;71.60;;
60430;SDS011;46285;45.122;20.726;2024-01-11T21:12:44;158.07;;;77.50;;
60430;SDS011;46285;45.122;20.726;2024-01-11T21:22:47;163.85;;;83.35;;
60430;SDS011;46285;45.122;20.726;2024-01-11T21:32:51;153.88;;;76.68;;
60430;SDS011;46285;45.122;20.726;2024-01-11T21:42:55;147.68;;;75.72;;
60430;SDS011;46285;45.122;20.726;2024-01-11T21:52:57;188.07;;;98.03;;
60430;SDS011;46285;45.122;20.726;2024-01-11T22:03:02;147.27;;;77.65;;
60430;SDS011;46285;45.122;20.726;2024-01-11T22:13:04;161.35;;;79.13;;
60430;SDS011;46285;45.122;20.726;2024-01-11T22:23:08;156.07;;;78.65;;
60430;SDS011;46285;45.122;20.726;2024-01-11T22:33:10;155.93;;;76.05;;
60430;SDS011;46285;45.122;20.726;2024-01-11T22:43:13;150.55;;;80.55;;
60430;SDS011;46285;45.122;20.726;2024-01-11T22:53:39;136.40;;;72.97;;
60430;SDS011;46285;45.122;20.726;2024-01-11T23:03:41;136.55;;;74.85;;
60430;SDS011;46285;45.122;20.726;2024-01-11T23:13:43;140.73;;;72.07;;
60430;SDS011;46285;45.122;20.726;2024-01-11T23:23:48;114.90;;;60.80;;
60430;SDS011;46285;45.122;20.726;2024-01-11T23:33:52;112.65;;;59.55;;
60430;SDS011;46285;45.122;20.726;2024-01-11T23:43:54;122.65;;;65.15;;
60430;SDS011;46285;45.122;20.726;2024-01-11T23:54:00;129.05;;;69.45;;
